sensor_id;sensor_type;location;lat;lon;timestamp;P1;durP1;ratioP1;P2;durP2;ratioP2
6077;SDS011;3067;49.470;10.394;2023-06-04T00:00:25;4.77;;;1.97;;
6077;SDS011;3067;49.470;10.394;2023-06-04T00:02:52;2.73;;;2.50;;
6077;SDS011;3067;49.470;10.394;2023-06-04T00:05:19;4.27;;;2.10;;
6077;SDS011;3067;49.470;10.394;2023-06-04T00:07:50;2.40;;;2.20;;
6077;SDS011;3067;49.470;10.394;2023-06-04T00:10:17;3.07;;;2.57;;
6077;SDS011;3067;49.470;10.394;2023-06-04T00:12:45;7.77;;;2.03;;
6077;SDS011;3067;49.470;10.394;2023-06-04T00:15:14;2.40;;;2.20;;
6077;SDS011;3067;49.470;10.394;2023-06-04T00:17:41;2.37;;;2.17;;
6077;SDS011;3067;49.470;10.394;2023-06-04T00:20:09;3.33;;;2.10;;
6077;SDS011;3067;49.470;10.394;2023-06-04T00:22:36;12.33;;;2.60;;
6077;SDS011;3067;49.470;10.394;2023-06-04T00:25:07;2.30;;;2.10;;
6077;SDS011;3067;49.470;10.394;2023-06-04T00:27:34;1.83;;;1.73;;
6077;SDS011;3067;49.470;10.394;2023-06-04T00:30:01;2.23;;;2.10;;
6077;SDS011;3067;49.470;10.394;2023-06-04T00:32:30;2.40;;;2.20;;
6077;SDS011;3067;49.470;10.394;2023-06-04T00:34:57;2.00;;;1.90;;
6077;SDS011;3067;49.470;10.394;2023-06-04T00:37:25;2.00;;;1.90;;
6077;SDS011;3067;49.470;10.394;2023-06-04T00:39:52;3.83;;;2.37;;
6077;SDS011;3067;49.470;10.394;2023-06-04T00:42:20;2.20;;;2.00;;
6077;SDS011;3067;49.470;10.394;2023-06-04T00:44:47;2.40;;;2.20;;
6077;SDS011;3067;49.470;10.394;2023-06-04T00:47:15;2.03;;;1.93;;
6077;SDS011;3067;49.470;10.394;2023-06-04T00:49:44;3.13;;;2.10;;
6077;SDS011;3067;49.470;10.394;2023-06-04T00:52:11;2.67;;;2.47;;
6077;SDS011;3067;49.470;10.394;2023-06-04T00:54:40;3.40;;;1.97;;
6077;SDS011;3067;49.470;10.394;2023-06-04T00:57:08;2.23;;;2.10;;
6077;SDS011;3067;49.470;10.394;2023-06-04T00:59:36;2.50;;;1.97;;
6077;SDS011;3067;49.470;10.394;2023-06-04T01:02:06;2.37;;;2.27;;
6077;SDS011;3067;49.470;10.394;2023-06-04T01:04:36;1.93;;;1.83;;
6077;SDS011;3067;49.470;10.394;2023-06-04T01:07:06;2.30;;;2.20;;
6077;SDS011;3067;49.470;10.394;2023-06-04T01:09:34;2.50;;;2.30;;
6077;SDS011;3067;49.470;10.394;2023-06-04T01:12:03;2.10;;;2.00;;
6077;SDS011;3067;49.470;10.394;2023-06-04T01:14:30;5.23;;;2.00;;
6077;SDS011;3067;49.470;10.394;2023-06-04T01:16:59;2.80;;;1.90;;
6077;SDS011;3067;49.470;10.394;2023-06-04T01:19:37;2.20;;;2.10;;
6077;SDS011;3067;49.470;10.394;2023-06-04T01:22:15;2.17;;;1.90;;
6077;SDS011;3067;49.470;10.394;2023-06-04T01:24:49;2.33;;;2.10;;
6077;SDS011;3067;49.470;10.394;2023-06-04T01:27:20;2.47;;;2.27;;
6077;SDS011;3067;49.470;10.394;2023-06-04T01:29:48;3.30;;;2.10;;
6077;SDS011;3067;49.470;10.394;2023-06-04T01:32:16;6.23;;;2.13;;
6077;SDS011;3067;49.470;10.394;2023-06-04T01:34:44;2.73;;;1.93;;
6077;SDS011;3067;49.470;10.394;2023-06-04T01:37:11;3.80;;;2.13;;
6077;SDS011;3067;49.470;10.394;2023-06-04T01:39:40;2.60;;;1.90;;
6077;SDS011;3067;49.470;10.394;2023-06-04T01:42:08;2.90;;;2.53;;
6077;SDS011;3067;49.470;10.394;2023-06-04T01:44:36;1.93;;;1.83;;
6077;SDS011;3067;49.470;10.394;2023-06-04T01:47:03;5.43;;;2.13;;
6077;SDS011;3067;49.470;10.394;2023-06-04T01:49:30;2.27;;;2.07;;
6077;SDS011;3067;49.470;10.394;2023-06-04T01:51:58;3.13;;;2.13;;
6077;SDS011;3067;49.470;10.394;2023-06-04T01:54:25;3.60;;;2.50;;
6077;SDS011;3067;49.470;10.394;2023-06-04T01:56:56;2.20;;;2.10;;
6077;SDS011;3067;49.470;10.394;2023-06-04T01:59:23;2.10;;;2.00;;
6077;SDS011;3067;49.470;10.394;2023-06-04T02:01:52;2.20;;;1.77;;
6077;SDS011;3067;49.470;10.394;2023-06-04T02:04:19;2.67;;;2.20;;
6077;SDS011;3067;49.470;10.394;2023-06-04T02:06:48;2.10;;;2.00;;
6077;SDS011;3067;49.470;10.394;2023-06-04T02:09:15;2.20;;;2.00;;
6077;SDS011;3067;49.470;10.394;2023-06-04T02:11:42;1.90;;;1.80;;
6077;SDS011;3067;49.470;10.394;2023-06-04T02:14:11;2.10;;;2.00;;
6077;SDS011;3067;49.470;10.394;2023-06-04T02:16:38;3.73;;;2.10;;
6077;SDS011;3067;49.470;10.394;2023-06-04T02:19:06;5.23;;;1.97;;
6077;SDS011;3067;49.470;10.394;2023-06-04T02:21:33;2.00;;;1.90;;
6077;SDS011;3067;49.470;10.394;2023-06-04T02:24:01;5.67;;;1.67;;
6077;SDS011;3067;49.470;10.394;2023-06-04T02:26:28;2.30;;;1.80;;
6077;SDS011;3067;49.470;10.394;2023-06-04T02:28:56;2.00;;;1.63;;
6077;SDS011;3067;49.470;10.394;2023-06-04T02:31:24;1.67;;;1.50;;
6077;SDS011;3067;49.470;10.394;2023-06-04T02:33:52;1.80;;;1.70;;
6077;SDS011;3067;49.470;10.394;2023-06-04T02:36:19;4.53;;;1.90;;
6077;SDS011;3067;49.470;10.394;2023-06-04T02:38:46;1.70;;;1.70;;
6077;SDS011;3067;49.470;10.394;2023-06-04T02:41:13;1.90;;;1.80;;
6077;SDS011;3067;49.470;10.394;2023-06-04T02:43:41;5.80;;;1.80;;
6077;SDS011;3067;49.470;10.394;2023-06-04T02:46:08;2.80;;;1.73;;
6077;SDS011;3067;49.470;10.394;2023-06-04T02:48:37;2.43;;;2.00;;
6077;SDS011;3067;49.470;10.394;2023-06-04T02:51:04;9.00;;;1.70;;
6077;SDS011;3067;49.470;10.394;2023-06-04T02:53:35;3.60;;;1.60;;
6077;SDS011;3067;49.470;10.394;2023-06-04T02:56:02;1.83;;;1.73;;
6077;SDS011;3067;49.470;10.394;2023-06-04T02:58:29;1.57;;;1.47;;
6077;SDS011;3067;49.470;10.394;2023-06-04T03:00:57;6.27;;;1.67;;
6077;SDS011;3067;49.470;10.394;2023-06-04T03:03:25;3.43;;;1.77;;
6077;SDS011;3067;49.470;10.394;2023-06-04T03:05:54;2.60;;;2.00;;
6077;SDS011;3067;49.470;10.394;2023-06-04T03:08:21;1.70;;;1.60;;
6077;SDS011;3067;49.470;10.394;2023-06-04T03:10:49;1.60;;;1.50;;
6077;SDS011;3067;49.470;10.394;2023-06-04T03:13:17;1.53;;;1.43;;
6077;SDS011;3067;49.470;10.394;2023-06-04T03:15:44;4.60;;;1.90;;
6077;SDS011;3067;49.470;10.394;2023-06-04T03:18:14;2.03;;;1.90;;
6077;SDS011;3067;49.470;10.394;2023-06-04T03:20:41;1.77;;;1.67;;
6077;SDS011;3067;49.470;10.394;2023-06-04T03:23:10;1.87;;;1.77;;
6077;SDS011;3067;49.470;10.394;2023-06-04T03:25:37;15.23;;;2.03;;
6077;SDS011;3067;49.470;10.394;2023-06-04T03:28:04;2.20;;;2.00;;
6077;SDS011;3067;49.470;10.394;2023-06-04T03:30:31;1.67;;;1.57;;
6077;SDS011;3067;49.470;10.394;2023-06-04T03:32:59;1.90;;;1.80;;
6077;SDS011;3067;49.470;10.394;2023-06-04T03:35:27;4.00;;;1.53;;
6077;SDS011;3067;49.470;10.394;2023-06-04T03:37:54;2.13;;;1.70;;
6077;SDS011;3067;49.470;10.394;2023-06-04T03:40:23;1.70;;;1.60;;
6077;SDS011;3067;49.470;10.394;2023-06-04T03:42:50;2.13;;;1.53;;
6077;SDS011;3067;49.470;10.394;2023-06-04T03:45:17;1.97;;;1.87;;
6077;SDS011;3067;49.470;10.394;2023-06-04T03:47:45;1.97;;;1.87;;
6077;SDS011;3067;49.470;10.394;2023-06-04T03:50:12;3.83;;;2.00;;
6077;SDS011;3067;49.470;10.394;2023-06-04T03:52:39;1.97;;;1.87;;
6077;SDS011;3067;49.470;10.394;2023-06-04T03:55:07;7.17;;;2.17;;
6077;SDS011;3067;49.470;10.394;2023-06-04T03:57:37;2.10;;;2.00;;
6077;SDS011;3067;49.470;10.394;2023-06-04T04:00:05;1.90;;;1.80;;
6077;SDS011;3067;49.470;10.394;2023-06-04T04:02:33;2.30;;;2.20;;
6077;SDS011;3067;49.470;10.394;2023-06-04T04:05:00;1.97;;;1.87;;
6077;SDS011;3067;49.470;10.394;2023-06-04T04:07:28;1.97;;;1.83;;
6077;SDS011;3067;49.470;10.394;2023-06-04T04:09:55;7.50;;;2.10;;
6077;SDS011;3067;49.470;10.394;2023-06-04T04:12:22;6.33;;;1.53;;
6077;SDS011;3067;49.470;10.394;2023-06-04T04:14:51;1.90;;;1.80;;
6077;SDS011;3067;49.470;10.394;2023-06-04T04:17:18;4.57;;;2.20;;
6077;SDS011;3067;49.470;10.394;2023-06-04T04:19:45;2.20;;;2.00;;
6077;SDS011;3067;49.470;10.394;2023-06-04T04:22:13;2.67;;;1.97;;
6077;SDS011;3067;49.470;10.394;2023-06-04T04:24:42;10.43;;;2.10;;
6077;SDS011;3067;49.470;10.394;2023-06-04T04:27:10;1.80;;;1.70;;
6077;SDS011;3067;49.470;10.394;2023-06-04T04:29:37;2.10;;;2.00;;
6077;SDS011;3067;49.470;10.394;2023-06-04T04:32:06;3.73;;;2.00;;
6077;SDS011;3067;49.470;10.394;2023-06-04T04:34:36;3.03;;;2.23;;
6077;SDS011;3067;49.470;10.394;2023-06-04T04:37:04;2.10;;;2.00;;
6077;SDS011;3067;49.470;10.394;2023-06-04T04:39:34;8.20;;;2.17;;
6077;SDS011;3067;49.470;10.394;2023-06-04T04:42:02;4.13;;;1.93;;
6077;SDS011;3067;49.470;10.394;2023-06-04T04:44:30;2.10;;;2.00;;
6077;SDS011;3067;49.470;10.394;2023-06-04T04:46:57;1.83;;;1.73;;
6077;SDS011;3067;49.470;10.394;2023-06-04T04:49:26;4.40;;;2.00;;
6077;SDS011;3067;49.470;10.394;2023-06-04T04:51:53;2.27;;;2.17;;
6077;SDS011;3067;49.470;10.394;2023-06-04T04:54:20;2.00;;;1.90;;
6077;SDS011;3067;49.470;10.394;2023-06-04T04:56:47;2.70;;;2.30;;
6077;SDS011;3067;49.470;10.394;2023-06-04T04:59:15;4.70;;;2.57;;
6077;SDS011;3067;49.470;10.394;2023-06-04T05:01:42;3.67;;;2.37;;
6077;SDS011;3067;49.470;10.394;2023-06-04T05:04:09;2.17;;;2.07;;
6077;SDS011;3067;49.470;10.394;2023-06-04T05:06:38;2.07;;;1.97;;
6077;SDS011;3067;49.470;10.394;2023-06-04T05:09:05;2.23;;;2.13;;
6077;SDS011;3067;49.470;10.394;2023-06-04T05:11:33;2.43;;;2.33;;
6077;SDS011;3067;49.470;10.394;2023-06-04T05:14:00;5.37;;;2.23;;
6077;SDS011;3067;49.470;10.394;2023-06-04T05:16:28;2.43;;;2.33;;
6077;SDS011;3067;49.470;10.394;2023-06-04T05:18:56;2.60;;;2.40;;
6077;SDS011;3067;49.470;10.394;2023-06-04T05:21:23;5.67;;;2.47;;
6077;SDS011;3067;49.470;10.394;2023-06-04T05:23:53;2.53;;;2.33;;
6077;SDS011;3067;49.470;10.394;2023-06-04T05:26:20;3.90;;;2.20;;
6077;SDS011;3067;49.470;10.394;2023-06-04T05:28:50;3.13;;;2.07;;
6077;SDS011;3067;49.470;10.394;2023-06-04T05:31:18;2.40;;;2.30;;
6077;SDS011;3067;49.470;10.394;2023-06-04T05:33:45;3.53;;;2.40;;
6077;SDS011;3067;49.470;10.394;2023-06-04T05:36:14;2.87;;;2.67;;
6077;SDS011;3067;49.470;10.394;2023-06-04T05:38:41;5.87;;;2.13;;
6077;SDS011;3067;49.470;10.394;2023-06-04T05:41:10;2.10;;;2.00;;
6077;SDS011;3067;49.470;10.394;2023-06-04T05:43:37;3.70;;;2.17;;
6077;SDS011;3067;49.470;10.394;2023-06-04T05:46:05;2.63;;;2.43;;
6077;SDS011;3067;49.470;10.394;2023-06-04T05:48:32;3.93;;;2.27;;
6077;SDS011;3067;49.470;10.394;2023-06-04T05:51:00;8.90;;;2.50;;
6077;SDS011;3067;49.470;10.394;2023-06-04T05:53:27;2.00;;;1.90;;
6077;SDS011;3067;49.470;10.394;2023-06-04T05:55:54;2.37;;;2.20;;
6077;SDS011;3067;49.470;10.394;2023-06-04T05:58:23;1.97;;;1.87;;
6077;SDS011;3067;49.470;10.394;2023-06-04T06:00:50;2.70;;;2.10;;
6077;SDS011;3067;49.470;10.394;2023-06-04T06:03:17;2.87;;;2.30;;
6077;SDS011;3067;49.470;10.394;2023-06-04T06:05:45;2.30;;;2.10;;
6077;SDS011;3067;49.470;10.394;2023-06-04T06:08:13;9.40;;;2.10;;
6077;SDS011;3067;49.470;10.394;2023-06-04T06:10:40;2.07;;;1.97;;
6077;SDS011;3067;49.470;10.394;2023-06-04T06:13:08;2.30;;;2.10;;
6077;SDS011;3067;49.470;10.394;2023-06-04T06:15:37;2.00;;;1.90;;
6077;SDS011;3067;49.470;10.394;2023-06-04T06:18:04;1.80;;;1.70;;
6077;SDS011;3067;49.470;10.394;2023-06-04T06:20:32;2.23;;;1.70;;
6077;SDS011;3067;49.470;10.394;2023-06-04T06:23:05;3.07;;;1.80;;
6077;SDS011;3067;49.470;10.394;2023-06-04T06:25:32;16.40;;;1.90;;
6077;SDS011;3067;49.470;10.394;2023-06-04T06:27:59;2.10;;;2.00;;
6077;SDS011;3067;49.470;10.394;2023-06-04T06:30:27;5.80;;;2.17;;
6077;SDS011;3067;49.470;10.394;2023-06-04T06:32:55;2.30;;;2.00;;
6077;SDS011;3067;49.470;10.394;2023-06-04T06:35:22;1.73;;;1.63;;
6077;SDS011;3067;49.470;10.394;2023-06-04T06:37:50;2.17;;;2.03;;
6077;SDS011;3067;49.470;10.394;2023-06-04T06:40:17;3.90;;;1.90;;
6077;SDS011;3067;49.470;10.394;2023-06-04T06:42:47;1.70;;;1.70;;
6077;SDS011;3067;49.470;10.394;2023-06-04T06:45:15;1.70;;;1.60;;
6077;SDS011;3067;49.470;10.394;2023-06-04T06:47:42;1.87;;;1.77;;
6077;SDS011;3067;49.470;10.394;2023-06-04T06:50:11;2.20;;;2.10;;
6077;SDS011;3067;49.470;10.394;2023-06-04T06:52:38;4.10;;;1.87;;
6077;SDS011;3067;49.470;10.394;2023-06-04T06:55:05;2.93;;;1.87;;
6077;SDS011;3067;49.470;10.394;2023-06-04T06:57:33;1.97;;;1.87;;
6077;SDS011;3067;49.470;10.394;2023-06-04T07:00:00;2.40;;;1.80;;
6077;SDS011;3067;49.470;10.394;2023-06-04T07:02:28;2.80;;;1.83;;
6077;SDS011;3067;49.470;10.394;2023-06-04T07:04:56;3.33;;;1.57;;
6077;SDS011;3067;49.470;10.394;2023-06-04T07:07:24;2.03;;;1.73;;
6077;SDS011;3067;49.470;10.394;2023-06-04T07:09:52;1.70;;;1.60;;
6077;SDS011;3067;49.470;10.394;2023-06-04T07:12:19;1.60;;;1.50;;
6077;SDS011;3067;49.470;10.394;2023-06-04T07:14:46;1.73;;;1.63;;
6077;SDS011;3067;49.470;10.394;2023-06-04T07:17:13;6.87;;;1.63;;
6077;SDS011;3067;49.470;10.394;2023-06-04T07:19:41;1.97;;;1.73;;
6077;SDS011;3067;49.470;10.394;2023-06-04T07:22:08;2.00;;;1.80;;
6077;SDS011;3067;49.470;10.394;2023-06-04T07:24:37;1.70;;;1.60;;
6077;SDS011;3067;49.470;10.394;2023-06-04T07:27:09;1.90;;;1.80;;
6077;SDS011;3067;49.470;10.394;2023-06-04T07:29:37;2.10;;;1.43;;
6077;SDS011;3067;49.470;10.394;2023-06-04T07:32:04;5.63;;;1.93;;
6077;SDS011;3067;49.470;10.394;2023-06-04T07:34:32;1.87;;;1.70;;
6077;SDS011;3067;49.470;10.394;2023-06-04T07:36:59;2.70;;;1.90;;
6077;SDS011;3067;49.470;10.394;2023-06-04T07:39:26;3.43;;;1.60;;
6077;SDS011;3067;49.470;10.394;2023-06-04T07:41:56;3.50;;;1.93;;
6077;SDS011;3067;49.470;10.394;2023-06-04T07:44:24;4.83;;;1.83;;
6077;SDS011;3067;49.470;10.394;2023-06-04T07:46:51;7.90;;;1.90;;
6077;SDS011;3067;49.470;10.394;2023-06-04T07:49:18;2.07;;;1.97;;
6077;SDS011;3067;49.470;10.394;2023-06-04T07:51:45;1.80;;;1.70;;
6077;SDS011;3067;49.470;10.394;2023-06-04T07:54:13;2.20;;;1.80;;
6077;SDS011;3067;49.470;10.394;2023-06-04T07:56:41;1.80;;;1.70;;
6077;SDS011;3067;49.470;10.394;2023-06-04T07:59:10;1.70;;;1.60;;
6077;SDS011;3067;49.470;10.394;2023-06-04T08:01:37;1.90;;;1.80;;
6077;SDS011;3067;49.470;10.394;2023-06-04T08:04:05;1.80;;;1.70;;
6077;SDS011;3067;49.470;10.394;2023-06-04T08:06:32;2.10;;;1.80;;
6077;SDS011;3067;49.470;10.394;2023-06-04T08:09:00;2.17;;;2.07;;
6077;SDS011;3067;49.470;10.394;2023-06-04T08:11:27;3.17;;;1.30;;
6077;SDS011;3067;49.470;10.394;2023-06-04T08:13:55;1.60;;;1.60;;
6077;SDS011;3067;49.470;10.394;2023-06-04T08:16:24;1.60;;;1.50;;
6077;SDS011;3067;49.470;10.394;2023-06-04T08:18:51;4.73;;;1.97;;
6077;SDS011;3067;49.470;10.394;2023-06-04T08:21:24;1.73;;;1.63;;
6077;SDS011;3067;49.470;10.394;2023-06-04T08:23:52;1.70;;;1.60;;
6077;SDS011;3067;49.470;10.394;2023-06-04T08:26:19;1.63;;;1.60;;
6077;SDS011;3067;49.470;10.394;2023-06-04T08:28:47;1.70;;;1.60;;
6077;SDS011;3067;49.470;10.394;2023-06-04T08:33:47;2.80;;;1.70;;
6077;SDS011;3067;49.470;10.394;2023-06-04T08:36:14;7.10;;;1.80;;
6077;SDS011;3067;49.470;10.394;2023-06-04T08:38:42;4.20;;;1.43;;
6077;SDS011;3067;49.470;10.394;2023-06-04T08:41:10;1.90;;;1.80;;
6077;SDS011;3067;49.470;10.394;2023-06-04T08:43:40;1.90;;;1.80;;
6077;SDS011;3067;49.470;10.394;2023-06-04T08:46:09;2.30;;;2.20;;
6077;SDS011;3067;49.470;10.394;2023-06-04T08:48:36;2.70;;;1.70;;
6077;SDS011;3067;49.470;10.394;2023-06-04T08:51:06;1.80;;;1.70;;
6077;SDS011;3067;49.470;10.394;2023-06-04T08:53:35;1.63;;;1.53;;
6077;SDS011;3067;49.470;10.394;2023-06-04T08:56:02;5.43;;;1.43;;
6077;SDS011;3067;49.470;10.394;2023-06-04T08:58:30;4.63;;;1.67;;
6077;SDS011;3067;49.470;10.394;2023-06-04T09:00:58;2.53;;;1.83;;
6077;SDS011;3067;49.470;10.394;2023-06-04T09:03:26;3.17;;;1.60;;
6077;SDS011;3067;49.470;10.394;2023-06-04T09:05:56;2.03;;;1.83;;
6077;SDS011;3067;49.470;10.394;2023-06-04T09:08:26;1.60;;;1.50;;
6077;SDS011;3067;49.470;10.394;2023-06-04T09:10:53;1.90;;;1.80;;
6077;SDS011;3067;49.470;10.394;2023-06-04T09:13:21;2.10;;;2.00;;
6077;SDS011;3067;49.470;10.394;2023-06-04T09:15:57;7.57;;;2.00;;
6077;SDS011;3067;49.470;10.394;2023-06-04T09:18:25;1.80;;;1.70;;
6077;SDS011;3067;49.470;10.394;2023-06-04T09:21:00;1.83;;;1.73;;
6077;SDS011;3067;49.470;10.394;2023-06-04T09:23:29;1.67;;;1.57;;
6077;SDS011;3067;49.470;10.394;2023-06-04T09:25:57;2.07;;;1.97;;
6077;SDS011;3067;49.470;10.394;2023-06-04T09:28:32;1.67;;;1.57;;
6077;SDS011;3067;49.470;10.394;2023-06-04T09:31:00;1.80;;;1.70;;
6077;SDS011;3067;49.470;10.394;2023-06-04T09:33:28;1.80;;;1.77;;
6077;SDS011;3067;49.470;10.394;2023-06-04T09:35:55;1.90;;;1.80;;
6077;SDS011;3067;49.470;10.394;2023-06-04T09:38:23;1.60;;;1.60;;
6077;SDS011;3067;49.470;10.394;2023-06-04T09:40:53;1.47;;;1.40;;
6077;SDS011;3067;49.470;10.394;2023-06-04T09:43:23;3.57;;;1.47;;
6077;SDS011;3067;49.470;10.394;2023-06-04T09:45:50;2.50;;;1.77;;
6077;SDS011;3067;49.470;10.394;2023-06-04T09:48:21;3.30;;;2.13;;
6077;SDS011;3067;49.470;10.394;2023-06-04T09:50:48;1.60;;;1.50;;
6077;SDS011;3067;49.470;10.394;2023-06-04T09:53:16;2.97;;;1.47;;
6077;SDS011;3067;49.470;10.394;2023-06-04T09:55:43;1.63;;;1.57;;
6077;SDS011;3067;49.470;10.394;2023-06-04T09:58:12;2.27;;;1.50;;
6077;SDS011;3067;49.470;10.394;2023-06-04T10:00:40;5.50;;;1.47;;
6077;SDS011;3067;49.470;10.394;2023-06-04T10:03:07;2.30;;;1.30;;
6077;SDS011;3067;49.470;10.394;2023-06-04T10:05:38;1.53;;;1.53;;
6077;SDS011;3067;49.470;10.394;2023-06-04T10:08:06;2.07;;;1.80;;
6077;SDS011;3067;49.470;10.394;2023-06-04T10:10:36;1.60;;;1.50;;
6077;SDS011;3067;49.470;10.394;2023-06-04T10:13:05;1.50;;;1.40;;
6077;SDS011;3067;49.470;10.394;2023-06-04T10:15:34;1.50;;;1.40;;
6077;SDS011;3067;49.470;10.394;2023-06-04T10:18:02;2.87;;;1.40;;
6077;SDS011;3067;49.470;10.394;2023-06-04T10:20:30;1.30;;;1.30;;
6077;SDS011;3067;49.470;10.394;2023-06-04T10:22:57;1.60;;;1.50;;
6077;SDS011;3067;49.470;10.394;2023-06-04T10:25:26;1.60;;;1.50;;
6077;SDS011;3067;49.470;10.394;2023-06-04T10:27:53;4.53;;;1.70;;
6077;SDS011;3067;49.470;10.394;2023-06-04T10:30:20;1.47;;;1.47;;
6077;SDS011;3067;49.470;10.394;2023-06-04T10:32:49;4.63;;;1.50;;
6077;SDS011;3067;49.470;10.394;2023-06-04T10:35:17;2.00;;;1.60;;
6077;SDS011;3067;49.470;10.394;2023-06-04T10:37:44;1.83;;;1.50;;
6077;SDS011;3067;49.470;10.394;2023-06-04T10:40:13;1.67;;;1.30;;
6077;SDS011;3067;49.470;10.394;2023-06-04T10:42:41;1.40;;;1.30;;
6077;SDS011;3067;49.470;10.394;2023-06-04T10:45:09;1.30;;;1.30;;
6077;SDS011;3067;49.470;10.394;2023-06-04T10:47:37;1.50;;;1.40;;
6077;SDS011;3067;49.470;10.394;2023-06-04T10:50:10;1.27;;;1.27;;
6077;SDS011;3067;49.470;10.394;2023-06-04T10:52:38;1.60;;;1.50;;
6077;SDS011;3067;49.470;10.394;2023-06-04T10:55:06;1.30;;;1.20;;
6077;SDS011;3067;49.470;10.394;2023-06-04T10:57:34;7.20;;;1.30;;
6077;SDS011;3067;49.470;10.394;2023-06-04T11:00:02;3.17;;;1.40;;
6077;SDS011;3067;49.470;10.394;2023-06-04T11:02:34;1.70;;;1.60;;
6077;SDS011;3067;49.470;10.394;2023-06-04T11:05:03;1.30;;;1.30;;
6077;SDS011;3067;49.470;10.394;2023-06-04T11:07:41;1.40;;;1.30;;
6077;SDS011;3067;49.470;10.394;2023-06-04T11:10:10;1.60;;;1.50;;
6077;SDS011;3067;49.470;10.394;2023-06-04T11:12:42;1.50;;;1.40;;
6077;SDS011;3067;49.470;10.394;2023-06-04T11:15:09;1.40;;;1.30;;
6077;SDS011;3067;49.470;10.394;2023-06-04T11:17:37;1.80;;;1.70;;
6077;SDS011;3067;49.470;10.394;2023-06-04T11:20:04;1.50;;;1.40;;
6077;SDS011;3067;49.470;10.394;2023-06-04T11:22:44;1.50;;;1.40;;
6077;SDS011;3067;49.470;10.394;2023-06-04T11:25:16;2.33;;;1.40;;
6077;SDS011;3067;49.470;10.394;2023-06-04T11:27:44;5.13;;;1.40;;
6077;SDS011;3067;49.470;10.394;2023-06-04T11:30:12;1.70;;;1.60;;
6077;SDS011;3067;49.470;10.394;2023-06-04T11:32:39;1.27;;;1.10;;
6077;SDS011;3067;49.470;10.394;2023-06-04T11:35:07;1.50;;;1.40;;
6077;SDS011;3067;49.470;10.394;2023-06-04T11:37:36;1.50;;;1.40;;
6077;SDS011;3067;49.470;10.394;2023-06-04T11:40:14;1.57;;;1.40;;
6077;SDS011;3067;49.470;10.394;2023-06-04T11:42:42;1.30;;;1.30;;
6077;SDS011;3067;49.470;10.394;2023-06-04T11:45:10;2.77;;;1.33;;
6077;SDS011;3067;49.470;10.394;2023-06-04T11:47:37;2.40;;;1.50;;
6077;SDS011;3067;49.470;10.394;2023-06-04T11:50:05;1.40;;;1.40;;
6077;SDS011;3067;49.470;10.394;2023-06-04T11:52:33;1.40;;;1.30;;
6077;SDS011;3067;49.470;10.394;2023-06-04T11:55:00;4.40;;;1.30;;
6077;SDS011;3067;49.470;10.394;2023-06-04T11:57:29;1.33;;;1.23;;
6077;SDS011;3067;49.470;10.394;2023-06-04T11:59:56;1.50;;;1.40;;
6077;SDS011;3067;49.470;10.394;2023-06-04T12:02:23;2.10;;;1.10;;
6077;SDS011;3067;49.470;10.394;2023-06-04T12:04:51;1.67;;;1.57;;
6077;SDS011;3067;49.470;10.394;2023-06-04T12:07:19;1.83;;;1.30;;
6077;SDS011;3067;49.470;10.394;2023-06-04T12:09:49;3.07;;;1.50;;
6077;SDS011;3067;49.470;10.394;2023-06-04T12:12:21;1.40;;;1.40;;
6077;SDS011;3067;49.470;10.394;2023-06-04T12:14:57;1.63;;;1.57;;
6077;SDS011;3067;49.470;10.394;2023-06-04T12:17:24;1.90;;;1.80;;
6077;SDS011;3067;49.470;10.394;2023-06-04T12:19:51;1.17;;;1.17;;
6077;SDS011;3067;49.470;10.394;2023-06-04T12:22:19;1.70;;;1.60;;
6077;SDS011;3067;49.470;10.394;2023-06-04T12:24:47;1.43;;;1.33;;
6077;SDS011;3067;49.470;10.394;2023-06-04T12:27:18;1.50;;;1.40;;
6077;SDS011;3067;49.470;10.394;2023-06-04T12:29:53;1.43;;;1.30;;
6077;SDS011;3067;49.470;10.394;2023-06-04T12:32:22;1.30;;;1.30;;
6077;SDS011;3067;49.470;10.394;2023-06-04T12:34:49;1.73;;;1.57;;
6077;SDS011;3067;49.470;10.394;2023-06-04T12:37:17;2.57;;;1.50;;
6077;SDS011;3067;49.470;10.394;2023-06-04T12:39:45;1.60;;;1.50;;
6077;SDS011;3067;49.470;10.394;2023-06-04T12:42:12;1.10;;;1.10;;
6077;SDS011;3067;49.470;10.394;2023-06-04T12:44:39;1.53;;;1.40;;
6077;SDS011;3067;49.470;10.394;2023-06-04T12:47:07;1.77;;;1.50;;
6077;SDS011;3067;49.470;10.394;2023-06-04T12:49:36;3.80;;;1.63;;
6077;SDS011;3067;49.470;10.394;2023-06-04T12:52:03;2.77;;;1.60;;
6077;SDS011;3067;49.470;10.394;2023-06-04T12:54:31;5.53;;;1.57;;
6077;SDS011;3067;49.470;10.394;2023-06-04T12:56:59;4.13;;;1.50;;
6077;SDS011;3067;49.470;10.394;2023-06-04T12:59:26;1.60;;;1.50;;
6077;SDS011;3067;49.470;10.394;2023-06-04T13:01:54;1.47;;;1.40;;
6077;SDS011;3067;49.470;10.394;2023-06-04T13:04:22;2.33;;;1.30;;
6077;SDS011;3067;49.470;10.394;2023-06-04T13:06:51;1.77;;;1.67;;
6077;SDS011;3067;49.470;10.394;2023-06-04T13:09:23;1.63;;;1.53;;
6077;SDS011;3067;49.470;10.394;2023-06-04T13:11:53;1.10;;;1.10;;
6077;SDS011;3067;49.470;10.394;2023-06-04T13:14:20;4.30;;;1.53;;
6077;SDS011;3067;49.470;10.394;2023-06-04T13:16:48;1.53;;;1.43;;
6077;SDS011;3067;49.470;10.394;2023-06-04T13:19:16;1.80;;;1.70;;
6077;SDS011;3067;49.470;10.394;2023-06-04T13:21:44;1.47;;;1.47;;
6077;SDS011;3067;49.470;10.394;2023-06-04T13:24:13;3.57;;;1.30;;
6077;SDS011;3067;49.470;10.394;2023-06-04T13:26:40;1.30;;;1.30;;
6077;SDS011;3067;49.470;10.394;2023-06-04T13:29:08;1.73;;;1.63;;
6077;SDS011;3067;49.470;10.394;2023-06-04T13:31:35;1.73;;;1.63;;
6077;SDS011;3067;49.470;10.394;2023-06-04T13:34:04;1.63;;;1.63;;
6077;SDS011;3067;49.470;10.394;2023-06-04T13:36:31;4.20;;;1.50;;
6077;SDS011;3067;49.470;10.394;2023-06-04T13:38:58;1.80;;;1.70;;
6077;SDS011;3067;49.470;10.394;2023-06-04T13:41:27;2.00;;;1.77;;
6077;SDS011;3067;49.470;10.394;2023-06-04T13:43:54;1.80;;;1.70;;
6077;SDS011;3067;49.470;10.394;2023-06-04T13:46:21;1.60;;;1.50;;
6077;SDS011;3067;49.470;10.394;2023-06-04T13:48:49;1.20;;;1.20;;
6077;SDS011;3067;49.470;10.394;2023-06-04T13:51:16;2.93;;;1.40;;
6077;SDS011;3067;49.470;10.394;2023-06-04T13:53:43;3.20;;;1.40;;
6077;SDS011;3067;49.470;10.394;2023-06-04T13:56:11;2.50;;;1.40;;
6077;SDS011;3067;49.470;10.394;2023-06-04T13:58:39;2.30;;;1.67;;
6077;SDS011;3067;49.470;10.394;2023-06-04T14:01:07;1.90;;;1.80;;
6077;SDS011;3067;49.470;10.394;2023-06-04T14:03:34;1.50;;;1.50;;
6077;SDS011;3067;49.470;10.394;2023-06-04T14:06:01;1.67;;;1.63;;
6077;SDS011;3067;49.470;10.394;2023-06-04T14:08:28;1.97;;;1.60;;
6077;SDS011;3067;49.470;10.394;2023-06-04T14:10:56;4.10;;;1.57;;
6077;SDS011;3067;49.470;10.394;2023-06-04T14:13:24;1.30;;;1.30;;
6077;SDS011;3067;49.470;10.394;2023-06-04T14:15:52;1.43;;;1.43;;
6077;SDS011;3067;49.470;10.394;2023-06-04T14:18:20;1.53;;;1.53;;
6077;SDS011;3067;49.470;10.394;2023-06-04T14:20:47;6.30;;;1.80;;
6077;SDS011;3067;49.470;10.394;2023-06-04T14:23:15;1.63;;;1.53;;
6077;SDS011;3067;49.470;10.394;2023-06-04T14:25:43;1.40;;;1.33;;
6077;SDS011;3067;49.470;10.394;2023-06-04T14:28:11;1.53;;;1.43;;
6077;SDS011;3067;49.470;10.394;2023-06-04T14:30:38;1.77;;;1.67;;
6077;SDS011;3067;49.470;10.394;2023-06-04T14:33:07;1.30;;;1.20;;
6077;SDS011;3067;49.470;10.394;2023-06-04T14:35:34;1.73;;;1.63;;
6077;SDS011;3067;49.470;10.394;2023-06-04T14:38:01;1.57;;;1.47;;
6077;SDS011;3067;49.470;10.394;2023-06-04T14:40:28;2.00;;;1.90;;
6077;SDS011;3067;49.470;10.394;2023-06-04T14:42:56;1.60;;;1.50;;
6077;SDS011;3067;49.470;10.394;2023-06-04T14:45:23;2.20;;;2.00;;
6077;SDS011;3067;49.470;10.394;2023-06-04T14:47:50;1.70;;;1.60;;
6077;SDS011;3067;49.470;10.394;2023-06-04T14:50:19;1.43;;;1.43;;
6077;SDS011;3067;49.470;10.394;2023-06-04T14:52:47;1.58;;;1.42;;
6077;SDS011;3067;49.470;10.394;2023-06-04T14:55:15;2.25;;;1.50;;
6077;SDS011;3067;49.470;10.394;2023-06-04T14:57:42;1.70;;;1.70;;
6077;SDS011;3067;49.470;10.394;2023-06-04T15:00:09;3.33;;;1.65;;
6077;SDS011;3067;49.470;10.394;2023-06-04T15:02:37;1.83;;;1.70;;
6077;SDS011;3067;49.470;10.394;2023-06-04T15:05:04;2.05;;;1.52;;
6077;SDS011;3067;49.470;10.394;2023-06-04T15:07:33;1.50;;;1.50;;